createdAt,value
2023-01-13T00:07:13.331Z,5.22
2023-01-13T00:27:13.346Z,5.10
2023-01-13T00:47:13.304Z,5.07
2023-01-13T01:07:13.290Z,4.98
2023-01-13T01:27:13.332Z,5.03
2023-01-13T01:47:13.277Z,5.22
2023-01-13T02:07:13.274Z,5.34
2023-01-13T02:27:13.262Z,5.38
2023-01-13T02:47:13.258Z,5.46
2023-01-13T03:07:13.250Z,5.56
2023-01-13T03:27:13.231Z,5.35
2023-01-13T04:07:13.193Z,5.38
2023-01-13T04:27:13.186Z,5.46
2023-01-13T04:47:13.156Z,5.56
2023-01-13T05:07:13.157Z,5.67
2023-01-13T05:27:13.138Z,5.66
2023-01-13T05:47:13.201Z,5.68
2023-01-13T06:07:20.130Z,5.67
2023-01-13T06:27:13.121Z,5.66
2023-01-13T06:47:13.184Z,5.85
2023-01-13T07:07:13.227Z,6.04
2023-01-13T07:27:13.088Z,6.04
2023-01-13T07:47:13.143Z,6.11
2023-01-13T08:07:13.059Z,6.26
2023-01-13T08:27:13.091Z,6.37
2023-01-13T08:47:13.137Z,6.50
2023-01-13T09:07:13.096Z,6.60
2023-01-13T09:27:13.002Z,6.80
2023-01-13T09:47:12.994Z,6.96
2023-01-13T10:07:12.971Z,7.23
2023-01-13T10:47:12.940Z,8.10
2023-01-13T11:07:12.928Z,8.33
2023-01-13T11:27:12.910Z,8.45
2023-01-13T11:47:12.894Z,8.50
2023-01-13T12:07:13.063Z,8.55
2023-01-13T12:27:12.936Z,8.78
2023-01-13T12:47:12.845Z,8.56
2023-01-13T13:07:12.827Z,8.37
2023-01-13T13:27:12.796Z,8.26
2023-01-13T13:47:12.863Z,8.00
2023-01-13T14:07:12.817Z,7.44
2023-01-13T14:27:12.709Z,6.68
2023-01-13T14:47:12.755Z,6.41
2023-01-13T15:07:12.662Z,6.20
2023-01-13T15:27:12.630Z,6.06
2023-01-13T15:47:12.633Z,5.82
2023-01-13T16:07:12.616Z,5.58
2023-01-13T16:27:12.623Z,5.30
2023-01-13T16:47:12.660Z,5.02
2023-01-13T17:07:12.676Z,4.87
2023-01-13T17:27:12.646Z,4.80
2023-01-13T17:47:12.644Z,4.84
2023-01-13T18:07:12.621Z,4.79
2023-01-13T18:27:12.591Z,4.63
2023-01-13T18:47:12.582Z,4.55
2023-01-13T19:07:12.569Z,4.50
2023-01-13T19:27:12.637Z,4.50
2023-01-13T19:47:12.565Z,4.27
2023-01-13T20:07:12.561Z,4.38
2023-01-13T20:27:12.598Z,4.39
2023-01-13T21:07:12.517Z,4.40
2023-01-13T21:27:12.520Z,4.33
2023-01-13T21:47:12.515Z,4.15
2023-01-13T22:07:12.498Z,3.97
2023-01-13T22:27:12.598Z,3.84
2023-01-13T22:47:12.477Z,3.64
2023-01-13T23:07:12.463Z,3.59
2023-01-13T23:27:12.479Z,3.59
2023-01-13T23:47:12.475Z,3.59
